Time;durP1;ratioP1;P1;durP2;ratioP2;P2;SDS_P1;SDS_P2;PMS_P1;PMS_P2;Temp;Humidity;BMP_temperature;BMP_pressure;BME280_temperature;BME280_humidity;BME280_pressure;Samples;Min_cycle;Max_cycle;Signal;HPM_P1;HPM_P2
2023/02/28 00:00:00;;;;;;;3.4;3.3;;;;;;;0.2;100.0;102880;;;;
2023/02/28 00:01:00;;;;;;;3.4;3.3;;;;;;;0.2;100.0;102880;;;;
2023/02/28 00:02:00;;;;;;;3.4;3.3;;;;;;;0.2;100.0;102880;;;;
2023/02/28 00:03:00;;;;;;;3.4;3.3;;;;;;;0.2;100.0;102880;;;;
2023/02/28 00:04:00;;;;;;;3.4;3.3;;;;;;;0.1;100.0;102880;;;;
2023/02/28 00:05:03;;;;;;;3.4;3.3;;;;;;;0.1;100.0;102880;;;;
2023/02/28 00:06:02;;;;;;;3.4;3.3;;;;;;;0.1;100.0;102870;;;;
2023/02/28 00:07:00;;;;;;;3.4;3.3;;;;;;;0.1;100.0;102870;;;;
2023/02/28 00:08:00;;;;;;;3.4;3.3;;;;;;;0.1;100.0;102880;;;;
2023/02/28 00:09:01;;;;;;;3.4;3.3;;;;;;;0.1;100.0;102880;;;;
2023/02/28 00:10:00;;;;;;;3.4;3.3;;;;;;;0.1;100.0;102880;;;;
2023/02/28 00:11:02;;;;;;;3.4;3.3;;;;;;;0.1;100.0;102880;;;;
2023/02/28 00:12:09;;;;;;;3.4;3.3;;;;;;;0.1;100.0;102870;;;;
2023/02/28 00:13:02;;;;;;;3.4;3.3;;;;;;;0.1;100.0;102870;;;;
2023/02/28 00:14:00;;;;;;;3.4;3.3;;;;;;;0.1;100.0;102870;;;;
2023/02/28 00:15:01;;;;;;;3.4;3.3;;;;;;;0.1;100.0;102870;;;;
2023/02/28 00:16:02;;;;;;;3.4;3.3;;;;;;;-0.1;100.0;102870;;;;
2023/02/28 00:17:00;;;;;;;3.4;3.3;;;;;;;-0.1;100.0;102870;;;;
2023/02/28 00:18:01;;;;;;;3.4;3.3;;;;;;;-0.1;100.0;102880;;;;
2023/02/28 00:19:00;;;;;;;4.0;3.9;;;;;;;-0.1;100.0;102880;;;;
2023/02/28 00:20:01;;;;;;;4.0;3.9;;;;;;;-0.0;100.0;102870;;;;
2023/02/28 00:21:01;;;;;;;4.0;3.9;;;;;;;-0.0;100.0;102870;;;;
2023/02/28 00:22:00;;;;;;;4.0;3.9;;;;;;;0.0;100.0;102870;;;;
2023/02/28 00:23:00;;;;;;;4.0;3.9;;;;;;;0.0;100.0;102870;;;;
2023/02/28 00:24:00;;;;;;;4.0;3.9;;;;;;;0.0;100.0;102870;;;;
2023/02/28 00:25:00;;;;;;;4.0;3.9;;;;;;;0.0;100.0;102870;;;;
2023/02/28 00:26:00;;;;;;;4.0;3.9;;;;;;;0.0;100.0;102870;;;;
2023/02/28 00:27:00;;;;;;;4.0;3.9;;;;;;;0.0;100.0;102870;;;;
2023/02/28 00:28:00;;;;;;;4.0;3.9;;;;;;;0.0;100.0;102880;;;;
2023/02/28 00:29:00;;;;;;;4.0;3.9;;;;;;;0.0;100.0;102880;;;;
2023/02/28 00:30:00;;;;;;;4.0;3.9;;;;;;;0.0;100.0;102870;;;;
2023/02/28 00:31:00;;;;;;;4.0;3.9;;;;;;;0.0;100.0;102870;;;;
2023/02/28 00:32:00;;;;;;;4.0;3.9;;;;;;;0.1;100.0;102870;;;;
2023/02/28 00:33:00;;;;;;;4.0;3.9;;;;;;;0.1;100.0;102870;;;;
2023/02/28 00:34:00;;;;;;;4.0;3.9;;;;;;;-0.0;100.0;102870;;;;
2023/02/28 00:35:00;;;;;;;4.0;3.9;;;;;;;-0.0;100.0;102870;;;;
2023/02/28 00:36:01;;;;;;;4.0;3.9;;;;;;;0.0;100.0;102870;;;;
2023/02/28 00:37:00;;;;;;;4.0;3.9;;;;;;;0.0;100.0;102870;;;;
2023/02/28 00:38:00;;;;;;;3.7;3.6;;;;;;;0.0;100.0;102870;;;;
2023/02/28 00:39:00;;;;;;;3.7;3.6;;;;;;;0.0;100.0;102870;;;;
2023/02/28 00:40:00;;;;;;;3.7;3.6;;;;;;;0.0;100.0;102870;;;;
2023/02/28 00:41:04;;;;;;;3.7;3.6;;;;;;;0.0;100.0;102870;;;;
2023/02/28 00:42:01;;;;;;;3.7;3.6;;;;;;;0.0;100.0;102870;;;;
2023/02/28 00:43:00;;;;;;;3.7;3.6;;;;;;;0.0;100.0;102870;;;;
2023/02/28 00:44:00;;;;;;;3.7;3.6;;;;;;;-0.0;100.0;102870;;;;
2023/02/28 00:45:01;;;;;;;3.7;3.6;;;;;;;-0.0;100.0;102870;;;;
2023/02/28 00:46:01;;;;;;;3.7;3.6;;;;;;;-0.0;100.0;102860;;;;
2023/02/28 00:47:00;;;;;;;3.7;3.6;;;;;;;-0.0;100.0;102860;;;;
2023/02/28 00:48:00;;;;;;;3.7;3.6;;;;;;;-0.1;100.0;102860;;;;
2023/02/28 00:49:00;;;;;;;3.7;3.6;;;;;;;-0.1;100.0;102860;;;;
2023/02/28 00:50:00;;;;;;;3.7;3.6;;;;;;;-0.1;100.0;102860;;;;
2023/02/28 00:51:00;;;;;;;3.7;3.6;;;;;;;-0.1;100.0;102860;;;;
2023/02/28 00:52:00;;;;;;;3.7;3.6;;;;;;;-0.1;100.0;102860;;;;
2023/02/28 00:53:00;;;;;;;3.7;3.6;;;;;;;-0.1;100.0;102860;;;;
2023/02/28 00:54:00;;;;;;;3.7;3.6;;;;;;;-0.1;100.0;102870;;;;
2023/02/28 00:55:00;;;;;;;3.7;3.6;;;;;;;-0.1;100.0;102870;;;;
2023/02/28 00:56:00;;;;;;;3.7;3.6;;;;;;;-0.2;100.0;102860;;;;
2023/02/28 00:57:01;;;;;;;3.7;3.6;;;;;;;-0.2;100.0;102860;;;;
2023/02/28 00:58:00;;;;;;;4.4;4.2;;;;;;;-0.1;100.0;102860;;;;
2023/02/28 00:59:00;;;;;;;4.4;4.2;;;;;;;-0.1;100.0;102860;;;;
2023/02/28 01:00:01;;;;;;;4.4;4.2;;;;;;;-0.2;100.0;102870;;;;
2023/02/28 01:01:00;;;;;;;4.4;4.2;;;;;;;-0.2;100.0;102870;;;;
2023/02/28 01:02:00;;;;;;;4.4;4.2;;;;;;;-0.2;100.0;102870;;;;
2023/02/28 01:03:00;;;;;;;4.4;4.2;;;;;;;-0.2;100.0;102870;;;;
2023/02/28 01:04:00;;;;;;;4.4;4.2;;;;;;;-0.2;100.0;102870;;;;
2023/02/28 01:05:00;;;;;;;4.4;4.2;;;;;;;-0.2;100.0;102870;;;;
2023/02/28 01:06:00;;;;;;;4.4;4.2;;;;;;;-0.2;100.0;102870;;;;
2023/02/28 01:07:00;;;;;;;4.4;4.2;;;;;;;-0.2;100.0;102870;;;;
2023/02/28 01:08:00;;;;;;;4.4;4.2;;;;;;;-0.2;100.0;102870;;;;
2023/02/28 01:09:00;;;;;;;4.4;4.2;;;;;;;-0.2;100.0;102870;;;;
2023/02/28 01:10:00;;;;;;;4.4;4.2;;;;;;;-0.3;100.0;102880;;;;
2023/02/28 01:11:07;;;;;;;4.4;4.2;;;;;;;-0.3;100.0;102880;;;;
2023/02/28 01:12:00;;;;;;;4.4;4.2;;;;;;;-0.5;100.0;102880;;;;
2023/02/28 01:13:00;;;;;;;4.4;4.2;;;;;;;-0.5;100.0;102880;;;;
2023/02/28 01:14:01;;;;;;;4.4;4.2;;;;;;;-0.5;100.0;102880;;;;
2023/02/28 01:15:00;;;;;;;4.4;4.2;;;;;;;-0.5;100.0;102880;;;;
2023/02/28 01:16:00;;;;;;;4.4;4.2;;;;;;;-0.4;100.0;102880;;;;
2023/02/28 01:17:00;;;;;;;4.4;4.2;;;;;;;-0.4;100.0;102880;;;;
2023/02/28 01:18:00;;;;;;;4.2;4.1;;;;;;;-0.4;100.0;102890;;;;
2023/02/28 01:19:00;;;;;;;4.2;4.1;;;;;;;-0.4;100.0;102890;;;;
2023/02/28 01:20:00;;;;;;;4.2;4.1;;;;;;;-0.4;100.0;102890;;;;
2023/02/28 01:21:04;;;;;;;4.2;4.1;;;;;;;-0.4;100.0;102890;;;;
2023/02/28 01:22:02;;;;;;;4.2;4.1;;;;;;;-0.4;100.0;102890;;;;
2023/02/28 01:23:00;;;;;;;4.2;4.1;;;;;;;-0.4;100.0;102890;;;;
2023/02/28 01:24:01;;;;;;;4.2;4.1;;;;;;;-0.3;100.0;102880;;;;
2023/02/28 01:25:00;;;;;;;4.2;4.1;;;;;;;-0.3;100.0;102880;;;;
2023/02/28 01:26:09;;;;;;;4.2;4.1;;;;;;;-0.3;100.0;102890;;;;
2023/02/28 01:27:00;;;;;;;4.2;4.1;;;;;;;-0.3;100.0;102890;;;;
2023/02/28 01:28:00;;;;;;;4.2;4.1;;;;;;;-0.3;100.0;102890;;;;
2023/02/28 01:29:00;;;;;;;4.2;4.1;;;;;;;-0.3;100.0;102890;;;;
2023/02/28 01:30:00;;;;;;;4.2;4.1;;;;;;;-0.3;100.0;102890;;;;
2023/02/28 01:31:01;;;;;;;4.2;4.1;;;;;;;-0.3;100.0;102890;;;;
2023/02/28 01:32:00;;;;;;;4.2;4.1;;;;;;;-0.3;100.0;102880;;;;
2023/02/28 01:33:00;;;;;;;4.2;4.1;;;;;;;-0.3;100.0;102880;;;;
2023/02/28 01:34:00;;;;;;;4.2;4.1;;;;;;;-0.3;100.0;102900;;;;
2023/02/28 01:35:00;;;;;;;4.2;4.1;;;;;;;-0.3;100.0;102900;;;;
2023/02/28 01:36:03;;;;;;;4.2;4.1;;;;;;;-0.3;100.0;102890;;;;
2023/02/28 01:37:01;;;;;;;4.2;4.1;;;;;;;-0.3;100.0;102890;;;;
2023/02/28 01:38:10;;;;;;;3.9;3.8;;;;;;;-0.2;100.0;102880;;;;
2023/02/28 01:39:00;;;;;;;3.9;3.8;;;;;;;-0.2;100.0;102880;;;;
2023/02/28 01:40:00;;;;;;;3.9;3.8;;;;;;;-0.2;100.0;102880;;;;
2023/02/28 01:41:00;;;;;;;3.9;3.8;;;;;;;-0.2;100.0;102880;;;;
2023/02/28 01:42:00;;;;;;;3.9;3.8;;;;;;;-0.2;100.0;102880;;;;
2023/02/28 01:43:00;;;;;;;3.9;3.8;;;;;;;-0.2;100.0;102880;;;;
2023/02/28 01:44:03;;;;;;;3.9;3.8;;;;;;;-0.2;100.0;102880;;;;
2023/02/28 01:45:01;;;;;;;3.9;3.8;;;;;;;-0.2;100.0;102880;;;;
2023/02/28 01:46:00;;;;;;;3.9;3.8;;;;;;;-0.3;100.0;102870;;;;
2023/02/28 01:47:00;;;;;;;3.9;3.8;;;;;;;-0.3;100.0;102870;;;;
2023/02/28 01:48:03;;;;;;;3.9;3.8;;;;;;;-0.3;100.0;102870;;;;
2023/02/28 01:49:01;;;;;;;3.9;3.8;;;;;;;-0.3;100.0;102870;;;;
2023/02/28 01:50:02;;;;;;;3.9;3.8;;;;;;;-0.3;100.0;102870;;;;
2023/02/28 01:51:03;;;;;;;3.9;3.8;;;;;;;-0.3;100.0;102870;;;;
2023/02/28 01:52:00;;;;;;;3.9;3.8;;;;;;;-0.3;100.0;102870;;;;
2023/02/28 01:53:04;;;;;;;3.9;3.8;;;;;;;-0.3;100.0;102870;;;;
2023/02/28 01:54:03;;;;;;;3.9;3.8;;;;;;;-0.2;100.0;102860;;;;
2023/02/28 01:55:02;;;;;;;3.9;3.8;;;;;;;-0.2;100.0;102860;;;;
2023/02/28 01:56:03;;;;;;;3.9;3.8;;;;;;;-0.2;100.0;102860;;;;
2023/02/28 01:57:03;;;;;;;3.9;3.8;;;;;;;-0.2;100.0;102860;;;;
2023/02/28 01:58:02;;;;;;;3.6;3.5;;;;;;;-0.2;100.0;102860;;;;
2023/02/28 01:59:01;;;;;;;3.6;3.5;;;;;;;-0.2;100.0;102860;;;;
2023/02/28 02:00:04;;;;;;;3.6;3.5;;;;;;;-0.3;100.0;102860;;;;
2023/02/28 02:01:02;;;;;;;3.6;3.5;;;;;;;-0.3;100.0;102860;;;;
2023/02/28 02:02:01;;;;;;;3.6;3.5;;;;;;;-0.2;100.0;102870;;;;
2023/02/28 02:03:04;;;;;;;3.6;3.5;;;;;;;-0.2;100.0;102870;;;;
2023/02/28 02:04:02;;;;;;;3.6;3.5;;;;;;;-0.2;100.0;102870;;;;
2023/02/28 02:05:04;;;;;;;3.6;3.5;;;;;;;-0.2;100.0;102870;;;;
2023/02/28 02:06:02;;;;;;;3.6;3.5;;;;;;;-0.1;100.0;102870;;;;
2023/02/28 02:07:01;;;;;;;3.6;3.5;;;;;;;-0.1;100.0;102870;;;;
2023/02/28 02:08:04;;;;;;;3.6;3.5;;;;;;;-0.2;100.0;102870;;;;
2023/02/28 02:09:01;;;;;;;3.6;3.5;;;;;;;-0.2;100.0;102870;;;;
2023/02/28 02:10:11;;;;;;;3.6;3.5;;;;;;;-0.2;100.0;102860;;;;
2023/02/28 02:11:01;;;;;;;3.6;3.5;;;;;;;-0.2;100.0;102860;;;;
2023/02/28 02:12:06;;;;;;;3.6;3.5;;;;;;;-0.1;100.0;102860;;;;
2023/02/28 02:13:08;;;;;;;3.6;3.5;;;;;;;-0.1;100.0;102860;;;;
2023/02/28 02:14:10;;;;;;;3.6;3.5;;;;;;;-0.1;100.0;102860;;;;
2023/02/28 02:15:04;;;;;;;3.6;3.5;;;;;;;-0.1;100.0;102860;;;;
2023/02/28 02:16:10;;;;;;;3.6;3.5;;;;;;;-0.1;100.0;102850;;;;
2023/02/28 02:17:07;;;;;;;3.6;3.5;;;;;;;-0.1;100.0;102850;;;;
2023/02/28 02:18:05;;;;;;;4.1;4.0;;;;;;;-0.1;100.0;102850;;;;
2023/02/28 02:19:10;;;;;;;4.1;4.0;;;;;;;-0.1;100.0;102850;;;;
2023/02/28 02:20:03;;;;;;;4.1;4.0;;;;;;;-0.1;100.0;102860;;;;
2023/02/28 02:21:01;;;;;;;4.1;4.0;;;;;;;-0.1;100.0;102860;;;;
2023/02/28 02:22:10;;;;;;;4.1;4.0;;;;;;;-0.1;100.0;102850;;;;
2023/02/28 02:23:01;;;;;;;4.1;4.0;;;;;;;-0.1;100.0;102850;;;;
2023/02/28 02:24:10;;;;;;;4.1;4.0;;;;;;;-0.2;100.0;102860;;;;
2023/02/28 02:25:10;;;;;;;4.1;4.0;;;;;;;-0.2;100.0;102860;;;;
2023/02/28 02:26:10;;;;;;;4.1;4.0;;;;;;;-0.1;100.0;102860;;;;
2023/02/28 02:27:04;;;;;;;4.1;4.0;;;;;;;-0.1;100.0;102860;;;;
2023/02/28 02:28:01;;;;;;;4.1;4.0;;;;;;;-0.1;100.0;102850;;;;
2023/02/28 02:29:01;;;;;;;4.1;4.0;;;;;;;-0.1;100.0;102850;;;;
2023/02/28 02:30:10;;;;;;;4.1;4.0;;;;;;;-0.1;100.0;102860;;;;
2023/02/28 02:31:10;;;;;;;4.1;4.0;;;;;;;-0.1;100.0;102860;;;;
2023/02/28 02:32:10;;;;;;;4.1;4.0;;;;;;;-0.1;100.0;102850;;;;
2023/02/28 02:33:03;;;;;;;4.1;4.0;;;;;;;-0.1;100.0;102850;;;;
2023/02/28 02:34:00;;;;;;;4.1;4.0;;;;;;;-0.1;100.0;102850;;;;
2023/02/28 02:35:04;;;;;;;4.1;4.0;;;;;;;-0.1;100.0;102850;;;;
2023/02/28 02:36:07;;;;;;;4.1;4.0;;;;;;;0.0;100.0;102860;;;;
2023/02/28 02:37:00;;;;;;;4.1;4.0;;;;;;;0.0;100.0;102860;;;;
2023/02/28 02:38:08;;;;;;;3.5;3.4;;;;;;;0.1;100.0;102850;;;;
2023/02/28 02:39:10;;;;;;;3.5;3.4;;;;;;;0.1;100.0;102850;;;;
2023/02/28 02:40:11;;;;;;;3.5;3.4;;;;;;;0.1;100.0;102850;;;;
2023/02/28 02:41:07;;;;;;;3.5;3.4;;;;;;;0.1;100.0;102850;;;;
2023/02/28 02:42:03;;;;;;;3.5;3.4;;;;;;;0.1;100.0;102850;;;;
2023/02/28 02:43:01;;;;;;;3.5;3.4;;;;;;;0.1;100.0;102850;;;;
2023/02/28 02:44:05;;;;;;;3.5;3.4;;;;;;;0.1;100.0;102850;;;;
2023/02/28 02:45:07;;;;;;;3.5;3.4;;;;;;;0.1;100.0;102850;;;;
2023/02/28 02:46:04;;;;;;;3.5;3.4;;;;;;;0.2;100.0;102850;;;;
2023/02/28 02:47:06;;;;;;;3.5;3.4;;;;;;;0.2;100.0;102850;;;;
2023/02/28 02:48:01;;;;;;;3.5;3.4;;;;;;;0.3;100.0;102850;;;;
2023/02/28 02:49:03;;;;;;;3.5;3.4;;;;;;;0.3;100.0;102850;;;;
2023/02/28 02:50:04;;;;;;;3.5;3.4;;;;;;;0.4;100.0;102850;;;;
2023/02/28 02:51:03;;;;;;;3.5;3.4;;;;;;;0.4;100.0;102850;;;;
2023/02/28 02:52:03;;;;;;;3.5;3.4;;;;;;;0.3;100.0;102850;;;;
2023/02/28 02:53:01;;;;;;;3.5;3.4;;;;;;;0.3;100.0;102850;;;;
2023/02/28 02:54:10;;;;;;;3.5;3.4;;;;;;;0.2;100.0;102850;;;;
2023/02/28 02:55:02;;;;;;;3.5;3.4;;;;;;;0.2;100.0;102850;;;;
2023/02/28 02:56:02;;;;;;;3.5;3.4;;;;;;;0.2;100.0;102850;;;;
2023/02/28 02:57:03;;;;;;;3.5;3.4;;;;;;;0.2;100.0;102850;;;;
2023/02/28 02:58:03;;;;;;;3.9;3.8;;;;;;;0.1;100.0;102850;;;;
2023/02/28 02:59:02;;;;;;;3.9;3.8;;;;;;;0.1;100.0;102850;;;;
2023/02/28 03:00:02;;;;;;;3.9;3.8;;;;;;;0.2;100.0;102850;;;;
2023/02/28 03:01:02;;;;;;;3.9;3.8;;;;;;;0.2;100.0;102850;;;;
2023/02/28 03:02:04;;;;;;;3.9;3.8;;;;;;;0.2;100.0;102860;;;;
2023/02/28 03:03:01;;;;;;;3.9;3.8;;;;;;;0.2;100.0;102860;;;;
2023/02/28 03:04:03;;;;;;;3.9;3.8;;;;;;;0.1;100.0;102860;;;;
2023/02/28 03:05:02;;;;;;;3.9;3.8;;;;;;;0.1;100.0;102860;;;;
2023/02/28 03:06:01;;;;;;;3.9;3.8;;;;;;;0.3;100.0;102860;;;;
2023/02/28 03:07:00;;;;;;;3.9;3.8;;;;;;;0.3;100.0;102860;;;;
2023/02/28 03:08:02;;;;;;;3.9;3.8;;;;;;;0.2;100.0;102850;;;;
2023/02/28 03:09:01;;;;;;;3.9;3.8;;;;;;;0.2;100.0;102850;;;;
2023/02/28 03:10:01;;;;;;;3.9;3.8;;;;;;;0.2;100.0;102850;;;;
2023/02/28 03:11:02;;;;;;;3.9;3.8;;;;;;;0.2;100.0;102850;;;;
2023/02/28 03:12:01;;;;;;;3.9;3.8;;;;;;;0.2;100.0;102850;;;;
2023/02/28 03:13:09;;;;;;;3.9;3.8;;;;;;;0.2;100.0;102850;;;;
2023/02/28 03:14:10;;;;;;;3.9;3.8;;;;;;;0.2;100.0;102850;;;;
2023/02/28 03:15:08;;;;;;;3.9;3.8;;;;;;;0.2;100.0;102850;;;;
2023/02/28 03:16:10;;;;;;;3.9;3.8;;;;;;;0.2;100.0;102850;;;;
2023/02/28 03:17:10;;;;;;;3.9;3.8;;;;;;;0.2;100.0;102850;;;;
2023/02/28 03:18:06;;;;;;;3.6;3.5;;;;;;;0.2;100.0;102860;;;;
2023/02/28 03:19:10;;;;;;;3.6;3.5;;;;;;;0.2;100.0;102860;;;;
2023/02/28 03:20:10;;;;;;;3.6;3.5;;;;;;;0.1;100.0;102860;;;;
2023/02/28 03:21:06;;;;;;;3.6;3.5;;;;;;;0.1;100.0;102860;;;;
2023/02/28 03:22:09;;;;;;;3.6;3.5;;;;;;;0.1;100.0;102850;;;;
2023/02/28 03:23:07;;;;;;;3.6;3.5;;;;;;;0.1;100.0;102850;;;;
2023/02/28 03:24:10;;;;;;;3.6;3.5;;;;;;;0.2;100.0;102850;;;;
2023/02/28 03:25:00;;;;;;;3.6;3.5;;;;;;;0.2;100.0;102850;;;;
2023/02/28 03:26:04;;;;;;;3.6;3.5;;;;;;;0.2;100.0;102850;;;;
2023/02/28 03:27:08;;;;;;;3.6;3.5;;;;;;;0.2;100.0;102850;;;;
2023/02/28 03:28:04;;;;;;;3.6;3.5;;;;;;;0.2;100.0;102850;;;;
2023/02/28 03:29:12;;;;;;;3.6;3.5;;;;;;;0.2;100.0;102850;;;;
2023/02/28 03:30:03;;;;;;;3.6;3.5;;;;;;;0.3;100.0;102850;;;;
2023/02/28 03:31:08;;;;;;;3.6;3.5;;;;;;;0.3;100.0;102850;;;;
2023/02/28 03:32:04;;;;;;;3.6;3.5;;;;;;;0.3;100.0;102850;;;;
2023/02/28 03:33:00;;;;;;;3.6;3.5;;;;;;;0.3;100.0;102850;;;;
2023/02/28 03:34:05;;;;;;;3.6;3.5;;;;;;;0.3;100.0;102850;;;;
2023/02/28 03:35:06;;;;;;;3.6;3.5;;;;;;;0.3;100.0;102850;;;;
2023/02/28 03:36:04;;;;;;;3.6;3.5;;;;;;;0.2;100.0;102850;;;;
2023/02/28 03:37:03;;;;;;;3.6;3.5;;;;;;;0.2;100.0;102850;;;;
2023/02/28 03:38:05;;;;;;;3.5;3.4;;;;;;;0.3;100.0;102850;;;;
2023/02/28 03:39:06;;;;;;;3.5;3.4;;;;;;;0.3;100.0;102850;;;;
2023/02/28 03:40:06;;;;;;;3.5;3.4;;;;;;;0.2;100.0;102860;;;;
2023/02/28 03:41:06;;;;;;;3.5;3.4;;;;;;;0.2;100.0;102860;;;;
2023/02/28 03:42:05;;;;;;;3.5;3.4;;;;;;;0.3;100.0;102850;;;;
2023/02/28 03:43:03;;;;;;;3.5;3.4;;;;;;;0.3;100.0;102850;;;;
2023/02/28 03:44:03;;;;;;;3.5;3.4;;;;;;;0.3;100.0;102850;;;;
2023/02/28 03:45:04;;;;;;;3.5;3.4;;;;;;;0.3;100.0;102850;;;;
2023/02/28 03:46:03;;;;;;;3.5;3.4;;;;;;;0.3;100.0;102850;;;;
2023/02/28 03:47:04;;;;;;;3.5;3.4;;;;;;;0.3;100.0;102850;;;;
2023/02/28 03:48:00;;;;;;;3.5;3.4;;;;;;;0.3;100.0;102860;;;;
2023/02/28 03:49:03;;;;;;;3.5;3.4;;;;;;;0.3;100.0;102860;;;;
2023/02/28 03:50:06;;;;;;;3.5;3.4;;;;;;;0.4;100.0;102850;;;;
2023/02/28 03:51:02;;;;;;;3.5;3.4;;;;;;;0.4;100.0;102850;;;;
2023/02/28 03:52:02;;;;;;;3.5;3.4;;;;;;;0.4;100.0;102860;;;;
2023/02/28 03:53:04;;;;;;;3.5;3.4;;;;;;;0.4;100.0;102860;;;;
2023/02/28 03:54:04;;;;;;;3.5;3.4;;;;;;;0.4;100.0;102860;;;;
2023/02/28 03:55:06;;;;;;;3.5;3.4;;;;;;;0.4;100.0;102860;;;;
2023/02/28 03:56:07;;;;;;;3.5;3.4;;;;;;;0.4;100.0;102850;;;;
2023/02/28 03:57:05;;;;;;;3.4;3.3;;;;;;;0.4;100.0;102850;;;;
2023/02/28 03:58:05;;;;;;;3.4;3.3;;;;;;;0.4;100.0;102850;;;;
2023/02/28 03:59:04;;;;;;;3.4;3.3;;;;;;;0.4;100.0;102850;;;;
2023/02/28 04:00:05;;;;;;;3.4;3.3;;;;;;;0.4;100.0;102840;;;;
2023/02/28 04:01:10;;;;;;;3.4;3.3;;;;;;;0.4;100.0;102840;;;;
2023/02/28 04:02:01;;;;;;;3.4;3.3;;;;;;;0.5;100.0;102850;;;;
2023/02/28 04:03:01;;;;;;;3.4;3.3;;;;;;;0.5;100.0;102850;;;;
2023/02/28 04:04:01;;;;;;;3.4;3.3;;;;;;;0.5;100.0;102840;;;;
2023/02/28 04:05:00;;;;;;;3.4;3.3;;;;;;;0.5;100.0;102840;;;;
2023/02/28 04:06:00;;;;;;;3.4;3.3;;;;;;;0.6;100.0;102840;;;;
2023/02/28 04:07:02;;;;;;;3.4;3.3;;;;;;;0.6;100.0;102840;;;;
2023/02/28 04:08:05;;;;;;;3.4;3.3;;;;;;;0.6;100.0;102840;;;;
2023/02/28 04:09:01;;;;;;;3.4;3.3;;;;;;;0.6;100.0;102840;;;;
2023/02/28 04:10:00;;;;;;;3.4;3.3;;;;;;;0.6;100.0;102840;;;;
2023/02/28 04:11:03;;;;;;;3.4;3.3;;;;;;;0.6;100.0;102840;;;;
2023/02/28 04:12:00;;;;;;;3.4;3.3;;;;;;;0.5;100.0;102840;;;;
2023/02/28 04:13:00;;;;;;;3.4;3.3;;;;;;;0.5;100.0;102840;;;;
2023/02/28 04:14:01;;;;;;;3.4;3.3;;;;;;;0.6;100.0;102840;;;;
2023/02/28 04:15:00;;;;;;;3.4;3.3;;;;;;;0.6;100.0;102840;;;;
2023/02/28 04:16:00;;;;;;;3.4;3.3;;;;;;;0.5;100.0;102840;;;;
2023/02/28 04:17:00;;;;;;;3.3;3.2;;;;;;;0.5;100.0;102840;;;;
2023/02/28 04:18:00;;;;;;;3.3;3.2;;;;;;;0.6;100.0;102850;;;;
2023/02/28 04:19:02;;;;;;;3.3;3.2;;;;;;;0.6;100.0;102850;;;;
2023/02/28 04:20:00;;;;;;;3.3;3.2;;;;;;;0.6;100.0;102850;;;;
2023/02/28 04:21:00;;;;;;;3.3;3.2;;;;;;;0.6;100.0;102850;;;;
2023/02/28 04:22:00;;;;;;;3.3;3.2;;;;;;;0.7;100.0;102840;;;;
2023/02/28 04:23:00;;;;;;;3.3;3.2;;;;;;;0.7;100.0;102840;;;;
2023/02/28 04:24:01;;;;;;;3.3;3.2;;;;;;;0.7;100.0;102850;;;;
2023/02/28 04:25:00;;;;;;;3.3;3.2;;;;;;;0.7;100.0;102850;;;;
2023/02/28 04:26:00;;;;;;;3.3;3.2;;;;;;;0.6;100.0;102850;;;;
2023/02/28 04:27:01;;;;;;;3.3;3.2;;;;;;;0.6;100.0;102850;;;;
2023/02/28 04:28:00;;;;;;;3.3;3.2;;;;;;;0.6;100.0;102850;;;;
2023/02/28 04:29:01;;;;;;;3.3;3.2;;;;;;;0.6;100.0;102850;;;;
2023/02/28 04:30:00;;;;;;;3.3;3.2;;;;;;;0.6;100.0;102850;;;;
2023/02/28 04:31:02;;;;;;;3.3;3.2;;;;;;;0.6;100.0;102850;;;;
2023/02/28 04:32:01;;;;;;;3.3;3.2;;;;;;;0.8;100.0;102850;;;;
2023/02/28 04:33:00;;;;;;;3.3;3.2;;;;;;;0.8;100.0;102850;;;;
2023/02/28 04:34:00;;;;;;;3.3;3.2;;;;;;;0.8;100.0;102850;;;;
2023/02/28 04:35:00;;;;;;;3.3;3.2;;;;;;;0.8;100.0;102850;;;;
2023/02/28 04:36:02;;;;;;;3.3;3.2;;;;;;;0.8;100.0;102850;;;;
2023/02/28 04:37:10;;;;;;;3.4;3.3;;;;;;;0.8;100.0;102850;;;;
2023/02/28 04:38:00;;;;;;;3.4;3.3;;;;;;;0.8;100.0;102850;;;;
2023/02/28 04:39:00;;;;;;;3.4;3.3;;;;;;;0.8;100.0;102850;;;;
2023/02/28 04:40:01;;;;;;;3.4;3.3;;;;;;;0.9;100.0;102850;;;;
2023/02/28 04:41:00;;;;;;;3.4;3.3;;;;;;;0.9;100.0;102850;;;;
2023/02/28 04:42:00;;;;;;;3.4;3.3;;;;;;;0.9;100.0;102850;;;;
2023/02/28 04:43:00;;;;;;;3.4;3.3;;;;;;;0.9;100.0;102850;;;;
2023/02/28 04:44:00;;;;;;;3.4;3.3;;;;;;;0.8;100.0;102860;;;;
2023/02/28 04:45:01;;;;;;;3.4;3.3;;;;;;;0.8;100.0;102860;;;;
2023/02/28 04:46:02;;;;;;;3.4;3.3;;;;;;;0.9;100.0;102850;;;;
2023/02/28 04:47:00;;;;;;;3.4;3.3;;;;;;;0.9;100.0;102850;;;;
2023/02/28 04:48:00;;;;;;;3.4;3.3;;;;;;;0.9;100.0;102850;;;;
2023/02/28 04:49:00;;;;;;;3.4;3.3;;;;;;;0.9;100.0;102850;;;;
2023/02/28 04:50:00;;;;;;;3.4;3.3;;;;;;;0.9;100.0;102850;;;;
2023/02/28 04:51:02;;;;;;;3.4;3.3;;;;;;;0.9;100.0;102850;;;;
2023/02/28 04:52:00;;;;;;;3.4;3.3;;;;;;;0.9;100.0;102860;;;;
2023/02/28 04:53:00;;;;;;;3.4;3.3;;;;;;;0.9;100.0;102860;;;;
2023/02/28 04:54:00;;;;;;;3.4;3.3;;;;;;;0.9;100.0;102850;;;;
2023/02/28 04:55:01;;;;;;;3.4;3.3;;;;;;;0.9;100.0;102850;;;;
2023/02/28 04:56:00;;;;;;;3.4;3.3;;;;;;;0.9;100.0;102860;;;;
2023/02/28 04:57:01;;;;;;;4.0;3.9;;;;;;;0.9;100.0;102860;;;;
2023/02/28 04:58:00;;;;;;;4.0;3.9;;;;;;;1.0;100.0;102860;;;;
2023/02/28 04:59:00;;;;;;;4.0;3.9;;;;;;;1.0;100.0;102860;;;;
2023/02/28 05:00:00;;;;;;;4.0;3.9;;;;;;;1.0;100.0;102870;;;;
2023/02/28 05:01:03;;;;;;;4.0;3.9;;;;;;;1.0;100.0;102870;;;;
2023/02/28 05:02:06;;;;;;;4.0;3.9;;;;;;;1.0;100.0;102860;;;;
2023/02/28 05:03:00;;;;;;;4.0;3.9;;;;;;;1.0;100.0;102860;;;;
2023/02/28 05:04:01;;;;;;;4.0;3.9;;;;;;;1.0;100.0;102860;;;;
2023/02/28 05:05:00;;;;;;;4.0;3.9;;;;;;;1.0;100.0;102860;;;;
2023/02/28 05:06:00;;;;;;;4.0;3.9;;;;;;;1.0;100.0;102870;;;;
2023/02/28 05:07:01;;;;;;;4.0;3.9;;;;;;;1.0;100.0;102870;;;;
2023/02/28 05:08:00;;;;;;;4.0;3.9;;;;;;;1.0;100.0;102860;;;;
2023/02/28 05:09:00;;;;;;;4.0;3.9;;;;;;;1.0;100.0;102860;;;;
2023/02/28 05:10:00;;;;;;;4.0;3.9;;;;;;;1.1;100.0;102870;;;;
2023/02/28 05:11:01;;;;;;;4.0;3.9;;;;;;;1.1;100.0;102870;;;;
2023/02/28 05:12:00;;;;;;;4.0;3.9;;;;;;;1.1;100.0;102870;;;;
2023/02/28 05:13:00;;;;;;;4.0;3.9;;;;;;;1.1;100.0;102870;;;;
2023/02/28 05:14:01;;;;;;;4.0;3.9;;;;;;;1.1;100.0;102870;;;;
2023/02/28 05:15:02;;;;;;;4.0;3.9;;;;;;;1.1;100.0;102870;;;;
2023/02/28 05:16:00;;;;;;;4.0;3.9;;;;;;;1.1;100.0;102880;;;;
2023/02/28 05:17:00;;;;;;;3.1;3.0;;;;;;;1.1;100.0;102880;;;;
2023/02/28 05:18:00;;;;;;;3.1;3.0;;;;;;;1.1;100.0;102880;;;;
2023/02/28 05:19:00;;;;;;;3.1;3.0;;;;;;;1.1;100.0;102880;;;;
2023/02/28 05:20:10;;;;;;;3.1;3.0;;;;;;;1.1;100.0;102870;;;;
2023/02/28 05:21:02;;;;;;;3.1;3.0;;;;;;;1.1;100.0;102870;;;;
2023/02/28 05:22:00;;;;;;;3.1;3.0;;;;;;;1.0;100.0;102870;;;;
2023/02/28 05:23:01;;;;;;;3.1;3.0;;;;;;;1.0;100.0;102870;;;;
2023/02/28 05:24:02;;;;;;;3.1;3.0;;;;;;;1.1;100.0;102870;;;;
2023/02/28 05:25:00;;;;;;;3.1;3.0;;;;;;;1.1;100.0;102870;;;;
2023/02/28 05:26:00;;;;;;;3.1;3.0;;;;;;;1.1;100.0;102870;;;;
2023/02/28 05:27:00;;;;;;;3.1;3.0;;;;;;;1.1;100.0;102870;;;;
2023/02/28 05:28:00;;;;;;;3.1;3.0;;;;;;;1.0;100.0;102870;;;;
2023/02/28 05:29:00;;;;;;;3.1;3.0;;;;;;;1.0;100.0;102870;;;;
2023/02/28 05:30:03;;;;;;;3.1;3.0;;;;;;;1.1;100.0;102870;;;;
2023/02/28 05:31:00;;;;;;;3.1;3.0;;;;;;;1.1;100.0;102870;;;;
2023/02/28 05:32:00;;;;;;;3.1;3.0;;;;;;;1.0;100.0;102870;;;;
2023/02/28 05:33:00;;;;;;;3.1;3.0;;;;;;;1.0;100.0;102870;;;;
2023/02/28 05:34:00;;;;;;;3.1;3.0;;;;;;;1.1;100.0;102870;;;;
2023/02/28 05:35:00;;;;;;;3.1;3.0;;;;;;;1.1;100.0;102870;;;;
2023/02/28 05:36:00;;;;;;;3.1;3.0;;;;;;;1.0;100.0;102870;;;;
2023/02/28 05:37:00;;;;;;;3.3;3.2;;;;;;;1.0;100.0;102870;;;;
2023/02/28 05:38:00;;;;;;;3.3;3.2;;;;;;;1.0;100.0;102870;;;;
2023/02/28 05:39:00;;;;;;;3.3;3.2;;;;;;;1.0;100.0;102870;;;;
2023/02/28 05:40:01;;;;;;;3.3;3.2;;;;;;;1.0;100.0;102870;;;;
2023/02/28 05:41:04;;;;;;;3.3;3.2;;;;;;;1.0;100.0;102870;;;;
2023/02/28 05:42:00;;;;;;;3.3;3.2;;;;;;;1.0;100.0;102870;;;;
2023/02/28 05:43:00;;;;;;;3.3;3.2;;;;;;;1.0;100.0;102870;;;;
2023/02/28 05:44:01;;;;;;;3.3;3.2;;;;;;;1.0;100.0;102870;;;;
2023/02/28 05:45:00;;;;;;;3.3;3.2;;;;;;;1.0;100.0;102870;;;;
2023/02/28 05:46:02;;;;;;;3.3;3.2;;;;;;;1.0;100.0;102870;;;;
2023/02/28 05:47:00;;;;;;;3.3;3.2;;;;;;;1.0;100.0;102870;;;;
2023/02/28 05:48:00;;;;;;;3.3;3.2;;;;;;;1.0;100.0;102870;;;;
2023/02/28 05:49:00;;;;;;;3.3;3.2;;;;;;;1.0;100.0;102870;;;;
2023/02/28 05:50:00;;;;;;;3.3;3.2;;;;;;;1.0;100.0;102880;;;;
2023/02/28 05:51:01;;;;;;;3.3;3.2;;;;;;;1.0;100.0;102880;;;;
2023/02/28 05:52:00;;;;;;;3.3;3.2;;;;;;;0.9;100.0;102880;;;;
2023/02/28 05:53:00;;;;;;;3.3;3.2;;;;;;;0.9;100.0;102880;;;;
2023/02/28 05:54:01;;;;;;;3.3;3.2;;;;;;;0.9;100.0;102880;;;;
2023/02/28 05:55:00;;;;;;;3.3;3.2;;;;;;;0.9;100.0;102880;;;;
2023/02/28 05:56:00;;;;;;;3.3;3.2;;;;;;;0.9;100.0;102880;;;;
2023/02/28 05:57:00;;;;;;;3.5;3.4;;;;;;;0.9;100.0;102880;;;;
2023/02/28 05:58:00;;;;;;;3.5;3.4;;;;;;;0.9;100.0;102880;;;;
2023/02/28 05:59:00;;;;;;;3.5;3.4;;;;;;;0.9;100.0;102880;;;;
2023/02/28 06:00:00;;;;;;;3.5;3.4;;;;;;;0.8;100.0;102890;;;;
2023/02/28 06:01:11;;;;;;;3.5;3.4;;;;;;;0.8;100.0;102890;;;;
2023/02/28 06:02:00;;;;;;;3.5;3.4;;;;;;;0.8;100.0;102890;;;;
2023/02/28 06:03:01;;;;;;;3.5;3.4;;;;;;;0.8;100.0;102890;;;;
2023/02/28 06:04:01;;;;;;;3.5;3.4;;;;;;;0.8;100.0;102890;;;;
2023/02/28 06:05:00;;;;;;;3.5;3.4;;;;;;;0.8;100.0;102890;;;;
2023/02/28 06:06:00;;;;;;;3.5;3.4;;;;;;;0.8;100.0;102880;;;;
2023/02/28 06:07:01;;;;;;;3.5;3.4;;;;;;;0.8;100.0;102880;;;;
2023/02/28 06:08:00;;;;;;;3.5;3.4;;;;;;;0.9;100.0;102890;;;;
2023/02/28 06:09:00;;;;;;;3.5;3.4;;;;;;;0.9;100.0;102890;;;;
2023/02/28 06:10:00;;;;;;;3.5;3.4;;;;;;;0.9;100.0;102890;;;;
2023/02/28 06:11:03;;;;;;;3.5;3.4;;;;;;;0.9;100.0;102890;;;;
2023/02/28 06:12:03;;;;;;;3.5;3.4;;;;;;;0.8;100.0;102890;;;;
2023/02/28 06:13:02;;;;;;;3.5;3.4;;;;;;;0.8;100.0;102890;;;;
2023/02/28 06:14:01;;;;;;;3.5;3.4;;;;;;;0.9;100.0;102890;;;;
2023/02/28 06:15:00;;;;;;;3.5;3.4;;;;;;;0.9;100.0;102890;;;;
2023/02/28 06:16:01;;;;;;;3.5;3.4;;;;;;;0.9;100.0;102890;;;;
2023/02/28 06:17:01;;;;;;;3.1;3.0;;;;;;;0.9;100.0;102890;;;;
2023/02/28 06:18:00;;;;;;;3.1;3.0;;;;;;;0.8;100.0;102890;;;;
2023/02/28 06:19:01;;;;;;;3.1;3.0;;;;;;;0.8;100.0;102890;;;;
2023/02/28 06:20:00;;;;;;;3.1;3.0;;;;;;;0.8;100.0;102890;;;;
2023/02/28 06:21:00;;;;;;;3.1;3.0;;;;;;;0.8;100.0;102890;;;;
2023/02/28 06:22:00;;;;;;;3.1;3.0;;;;;;;0.8;100.0;102900;;;;
2023/02/28 06:23:00;;;;;;;3.1;3.0;;;;;;;0.8;100.0;102900;;;;
2023/02/28 06:24:01;;;;;;;3.1;3.0;;;;;;;0.8;100.0;102900;;;;
2023/02/28 06:25:00;;;;;;;3.1;3.0;;;;;;;0.8;100.0;102900;;;;
2023/02/28 06:26:00;;;;;;;3.1;3.0;;;;;;;0.9;100.0;102900;;;;
2023/02/28 06:27:04;;;;;;;3.1;3.0;;;;;;;0.9;100.0;102900;;;;